Close

Questo sito utlizza cookie. Può leggere come li usiamo nella nostra Privacy Policy.

Ronchi Tower
Ronchi Tower

From Facebook

METAR & TAF

2020/09/28 04:50 LIPQ 280450Z AUTO 26009KT 9999 +RA OVC045/// 11/10 Q1000
2020/09/27 18:21 TAF LIPQ 271700Z 2718/2818 07012KT 9999 SCT040 BKN070 BECMG 2719/2721 4000 RA BKN012 BKN035 TEMPO 2721/2802 07015G25KT BECMG 2808/2810 VRB05KT BECMG 2815/2818 9999 NSW SCT025 SCT060
2020/09/28 04:50 LIPZ 280450Z 28008KT 9999 -RA SCT040 BKN070 11/11 Q1002 NOSIG
2020/09/27 18:21 TAF LIPZ 271700Z 2718/2824 10008KT 9999 SCT040 BKN070 BECMG 2719/2721 02015G25KT 4000 RA BKN010 BKN035 BECMG 2803/2805 29015G25KT BECMG 2808/2810 23010KT BECMG 2816/2818 07008KT 7000 NSW SCT025 BKN060
2020/09/28 04:50 LIPH 280450Z AUTO 28005KT 9999 -RA OVC063/// 12/11 Q1002
2020/09/27 18:21 TAF LIPH 271700Z 2718/2818 VRB05KT 9999 SCT040 BECMG 2719/2721 4000 RA BKN012 OVC040 BECMG 2813/2815 9999 NSW SCT025 SCT060
2020/09/28 04:50 LIRF 280450Z 10004KT 9999 FEW030 11/11 Q1007 TEMPO SHRA
2020/09/27 18:56 TAF AMD LIRF 271751Z 2718/2824 30007KT 9999 SCT030 TEMPO 2718/2721 4000 TSRA TEMPO 2804/2812 4000 TSRA BECMG 2808/2810 23014KT
2020/09/28 04:50 LIML 280450Z AUTO 24004KT 200V300 9999 NCD 08/07 Q1004
2020/09/27 18:21 TAF LIML 271700Z 2718/2818 10010KT 9999 SCT040 BECMG 2720/2722 VRB05KT
2020/09/28 04:50 EDDM 280450Z VRB01KT CAVOK 04/04 Q1008 NOSIG
2020/09/27 18:29 TAF EDDM 271700Z 2718/2824 05005KT CAVOK BECMG 2800/2802 27003KT FM280900 30003KT 9999 BKN020 TEMPO 2814/2817 BKN014
2020/09/28 04:50 EGSS 280450Z AUTO 32006KT 290V350 9999 OVC011 09/07 Q1012
2020/09/28 06:09 TAF EGSS 280504Z 2806/2912 29006KT 9999 SCT012 BKN022 TEMPO 2806/2808 BKN012 PROB30 TEMPO 2806/2808 8000 BKN008 BECMG 2808/2811 CAVOK BECMG 2821/2824 BKN035 BECMG 2900/2903 SCT004 BKN008 TEMPO 2901/2907 6000 -RADZ BKN004 PROB30 TEMPO 2902/2906 3000 DZ BECMG 2907/2910 SCT030
2020/09/28 04:50 EDDF 280450Z 26002KT CAVOK 06/05 Q1010 NOSIG
2020/09/27 19:54 TAF AMD EDDF 271931Z 2719/2824 16003KT 9999 BKN045 BECMG 2719/2721 FEW045 PROB40 TEMPO 2803/2807 2000 BCFG BECMG 2808/2810 22008KT

FlightRadar24

Radar Meteo

Traffic data

Agosto 2018

Passeggeri: 63892-12,9% (rank: 23)
Nazionali 34490 -19,8%
Internazionali 29193 -3,0%

Movimenti: 1307+11,7% (rank: 24)
Tot commerciale 556 -7,2%
Aviazione generale 751 +31,5%

Cargo (tons): 20,6+62,5% (rank: 21)

Gennaio - Agosto 2018

Passeggeri: 507438-3,5% (rank: 23)
Nazionali 322655 -4,9%
Internazionali 182927 -0,7%

Movimenti: 10366-4,25 (rank: 22)
Tot commerciale 5328 -11,0%
Aviazione generale 5038 +4,2%

Cargo (tons): 299,2+61,9% (rank: 20)

Photo

Airbus A320
Airbus A320
Distinct views: 16
Douglas DC-6B
Douglas DC-6B
Distinct views: 45
Douglas DC-6B
Douglas DC-6B
Distinct views: 189
Reims F152
Reims F152
Total views: 7977